Time;durP1;ratioP1;P1;durP2;ratioP2;P2;SDS_P1;SDS_P2;PMS_P1;PMS_P2;Temp;Humidity;BMP_temperature;BMP_pressure;BME280_temperature;BME280_humidity;BME280_pressure;Samples;Min_cycle;Max_cycle;Signal;HPM_P1;HPM_P2
2023/04/06 00:01:04;;;;;;;25.05;15.40;;;;;;;0.84;65.17;101730.03;4966883;28;20054;-70
2023/04/06 00:03:31;;;;;;;24.40;15.13;;;;;;;0.84;65.09;101722.25;4987764;28;20074;-70
2023/04/06 00:05:58;;;;;;;18.13;11.75;;;;;;;0.82;65.52;101716.16;4962467;28;20046;-70
2023/04/06 00:08:26;;;;;;;17.20;11.63;;;;;;;0.80;65.78;101713.53;4986015;28;20035;-70
2023/04/06 00:10:53;;;;;;;16.63;10.70;;;;;;;0.79;65.90;101705.72;4967874;28;20106;-70
2023/04/06 00:13:21;;;;;;;16.45;11.18;;;;;;;0.78;66.20;101710.00;4967496;28;20965;-70
2023/04/06 00:15:48;;;;;;;15.25;10.60;;;;;;;0.76;66.49;101712.56;4969339;28;20043;-70
2023/04/06 00:18:15;;;;;;;13.63;10.43;;;;;;;0.73;66.30;101709.03;4968419;28;20050;-71
2023/04/06 00:20:42;;;;;;;14.25;9.85;;;;;;;0.72;66.29;101712.47;4981804;28;20046;-70
2023/04/06 00:23:08;;;;;;;18.13;10.30;;;;;;;0.70;66.64;101711.53;4965110;28;20839;-70
2023/04/06 00:25:35;;;;;;;13.75;10.52;;;;;;;0.66;66.42;101709.75;4983224;28;20523;-70
2023/04/06 00:28:03;;;;;;;14.98;10.85;;;;;;;0.60;66.55;101703.53;4961071;28;21060;-70
2023/04/06 00:30:30;;;;;;;20.50;11.95;;;;;;;0.59;66.39;101708.69;4975110;28;20735;-70
2023/04/06 00:32:57;;;;;;;19.45;12.55;;;;;;;0.56;66.46;101704.28;4967672;28;20035;-70
2023/04/06 00:35:24;;;;;;;20.80;13.80;;;;;;;0.53;66.51;101700.75;4986663;28;20046;-70
2023/04/06 00:37:51;;;;;;;14.90;10.82;;;;;;;0.52;66.78;101706.78;4968358;28;20550;-69
2023/04/06 00:40:19;;;;;;;16.10;10.82;;;;;;;0.49;66.75;101696.34;4984006;28;20047;-69
2023/04/06 00:42:46;;;;;;;13.27;10.40;;;;;;;0.47;66.80;101696.28;4985344;28;20038;-69
2023/04/06 00:45:13;;;;;;;15.35;10.75;;;;;;;0.45;66.93;101692.78;4968146;28;20031;-69
2023/04/06 00:47:40;;;;;;;16.65;10.55;;;;;;;0.44;66.66;101691.03;4984911;28;20042;-69
2023/04/06 00:50:07;;;;;;;17.60;11.05;;;;;;;0.42;66.75;101695.31;4983483;28;20534;-69
2023/04/06 00:52:35;;;;;;;16.75;10.88;;;;;;;0.41;67.00;101689.22;4983822;28;20042;-69
2023/04/06 00:55:05;;;;;;;14.25;10.27;;;;;;;0.39;66.98;101688.31;4967199;28;20066;-69
2023/04/06 00:57:37;;;;;;;13.95;10.07;;;;;;;0.35;66.87;101683.88;4950038;28;20563;-69
2023/04/06 01:00:05;;;;;;;14.30;9.38;;;;;;;0.33;66.89;101679.50;4947255;28;20918;-70
2023/04/06 01:02:32;;;;;;;14.30;10.25;;;;;;;0.30;66.88;101675.97;4946582;28;20122;-70
2023/04/06 01:04:59;;;;;;;14.38;10.10;;;;;;;0.29;67.00;101682.00;4947368;28;20039;-70
2023/04/06 01:07:37;;;;;;;13.35;9.70;;;;;;;0.27;67.04;101677.63;4935625;28;20036;-70
2023/04/06 01:10:28;;;;;;;15.48;9.90;;;;;;;0.25;67.28;101674.09;4941037;28;20464;-70
2023/04/06 01:13:02;;;;;;;16.20;10.55;;;;;;;0.21;67.16;101662.78;4946264;28;20099;-71
2023/04/06 01:15:59;;;;;;;14.85;10.82;;;;;;;0.18;67.18;101665.28;4949307;28;20044;-72
2023/04/06 01:18:43;;;;;;;12.88;10.18;;;;;;;0.13;67.37;101667.75;4942812;28;20647;-71
2023/04/06 01:21:18;;;;;;;14.82;10.98;;;;;;;0.13;67.22;101661.72;4932718;28;20050;-71
2023/04/06 01:23:59;;;;;;;15.95;10.13;;;;;;;0.09;67.35;101658.16;4956959;28;20036;-72
2023/04/06 01:26:37;;;;;;;14.13;9.38;;;;;;;0.08;67.38;101663.28;4946953;28;20036;-70
2023/04/06 01:29:06;;;;;;;16.83;10.35;;;;;;;0.06;67.50;101660.69;4945816;28;20150;-71
2023/04/06 01:31:34;;;;;;;15.10;11.02;;;;;;;0.04;67.80;101651.09;4944984;28;20044;-71
2023/04/06 01:34:01;;;;;;;15.30;10.93;;;;;;;0.03;68.20;101651.94;4945146;28;20539;-70
2023/04/06 01:36:28;;;;;;;16.02;9.93;;;;;;;0.03;68.46;101654.53;4942320;28;20044;-69
2023/04/06 01:39:09;;;;;;;14.23;10.57;;;;;;;0.01;68.52;101641.50;4943164;28;20080;-69
2023/04/06 01:41:39;;;;;;;15.30;10.48;;;;;;;-0.01;68.54;101649.25;4959169;28;20098;-71
2023/04/06 01:44:06;;;;;;;16.88;11.05;;;;;;;-0.02;68.63;101638.84;4946735;28;20054;-69
2023/04/06 01:46:33;;;;;;;16.88;9.32;;;;;;;-0.05;68.63;101641.38;4946029;28;20040;-69
2023/04/06 01:49:04;;;;;;;15.30;10.82;;;;;;;-0.07;68.65;101635.25;4929289;28;20155;-69
2023/04/06 01:51:34;;;;;;;13.90;11.15;;;;;;;-0.10;68.74;101633.47;4938045;28;20040;-69
2023/04/06 01:54:05;;;;;;;17.40;10.68;;;;;;;-0.13;69.04;101635.97;4943138;28;20079;-70
2023/04/06 01:56:41;;;;;;;15.90;9.43;;;;;;;-0.16;69.04;101634.19;4944329;28;20548;-70
2023/04/06 01:59:21;;;;;;;15.32;9.05;;;;;;;-0.18;68.61;101634.97;4953455;28;20046;-70
2023/04/06 02:01:48;;;;;;;19.70;10.05;;;;;;;-0.21;69.00;101632.31;4966013;28;20081;-70
2023/04/06 02:04:15;;;;;;;15.57;10.93;;;;;;;-0.23;69.26;101633.97;4974591;28;20754;-70
2023/04/06 02:06:45;;;;;;;14.38;10.93;;;;;;;-0.24;69.42;101627.91;4966093;28;20082;-70
2023/04/06 02:09:14;;;;;;;15.73;11.18;;;;;;;-0.27;69.60;101626.97;4986099;28;20133;-70
2023/04/06 02:11:41;;;;;;;16.90;11.05;;;;;;;-0.29;69.61;101621.72;4961711;28;20141;-70
2023/04/06 02:14:08;;;;;;;16.77;10.98;;;;;;;-0.34;69.84;101619.00;4970963;28;20039;-71
2023/04/06 02:16:41;;;;;;;15.88;10.93;;;;;;;-0.35;70.12;101618.97;4971537;28;20050;-71
2023/04/06 02:19:08;;;;;;;16.40;9.55;;;;;;;-0.39;69.97;101614.53;4971880;28;20042;-70
2023/04/06 02:21:35;;;;;;;13.57;10.55;;;;;;;-0.43;70.54;101608.41;4976188;28;20043;-71
2023/04/06 02:24:02;;;;;;;17.17;11.25;;;;;;;-0.45;70.79;101611.78;4996328;28;20059;-70
2023/04/06 02:26:29;;;;;;;15.25;10.38;;;;;;;-0.48;70.70;101615.19;4984740;28;20042;-70
2023/04/06 02:28:56;;;;;;;17.25;9.43;;;;;;;-0.52;70.77;101611.63;4970598;28;20487;-71
2023/04/06 02:31:23;;;;;;;15.43;9.85;;;;;;;-0.53;70.75;101609.88;4985521;28;20102;-71
2023/04/06 02:33:51;;;;;;;14.35;10.88;;;;;;;-0.54;70.96;101609.81;4971228;28;20046;-71
2023/04/06 02:36:18;;;;;;;16.23;10.63;;;;;;;-0.53;71.38;101603.78;4968987;28;20042;-71
2023/04/06 02:38:45;;;;;;;14.73;9.88;;;;;;;-0.57;70.99;101597.66;4970946;28;20122;-70
2023/04/06 02:41:12;;;;;;;18.35;11.38;;;;;;;-0.55;71.23;101593.41;4984390;28;20067;-70
2023/04/06 02:43:39;;;;;;;17.13;11.50;;;;;;;-0.55;71.20;101597.69;4985235;28;20050;-70
2023/04/06 02:46:17;;;;;;;15.18;9.73;;;;;;;-0.55;71.26;101596.00;4985984;28;20050;-70
2023/04/06 02:48:44;;;;;;;18.40;12.10;;;;;;;-0.57;71.03;101592.47;4969101;28;20833;-70
2023/04/06 02:51:11;;;;;;;14.60;10.50;;;;;;;-0.57;71.25;101589.88;4971751;28;20075;-70
2023/04/06 02:53:41;;;;;;;14.70;11.48;;;;;;;-0.55;71.38;101587.31;4971961;28;20038;-70
2023/04/06 02:56:08;;;;;;;17.67;11.88;;;;;;;-0.54;72.02;101582.22;4968746;28;20067;-70
2023/04/06 02:58:45;;;;;;;15.77;10.45;;;;;;;-0.54;72.04;101576.13;4973796;28;20149;-70
2023/04/06 03:01:12;;;;;;;16.80;12.43;;;;;;;-0.51;72.22;101577.09;4954794;28;20043;-70
2023/04/06 03:03:40;;;;;;;18.85;12.35;;;;;;;-0.49;71.98;101569.38;4970676;28;20121;-70
2023/04/06 03:06:14;;;;;;;16.58;12.13;;;;;;;-0.46;71.93;101569.47;4970886;28;20046;-70
2023/04/06 03:08:42;;;;;;;21.23;12.27;;;;;;;-0.42;72.13;101565.25;4970431;28;20046;-70
2023/04/06 03:11:10;;;;;;;15.48;11.70;;;;;;;-0.36;72.41;101567.97;4971206;28;20043;-70
2023/04/06 03:13:40;;;;;;;16.10;11.52;;;;;;;-0.33;72.44;101563.75;4971212;28;20053;-70
2023/04/06 03:16:07;;;;;;;15.82;12.35;;;;;;;-0.29;72.43;101566.44;4970530;28;20563;-69
2023/04/06 03:18:35;;;;;;;16.92;11.82;;;;;;;-0.25;72.55;101563.97;4958220;28;20512;-70
2023/04/06 03:21:02;;;;;;;17.58;10.85;;;;;;;-0.22;72.31;101564.06;4970856;28;20035;-70
2023/04/06 03:23:42;;;;;;;19.63;10.27;;;;;;;-0.19;72.72;101561.50;4970593;28;20047;-70
2023/04/06 03:26:10;;;;;;;20.55;12.23;;;;;;;-0.15;72.32;101559.88;4968725;28;20041;-71
2023/04/06 03:28:37;;;;;;;17.83;11.57;;;;;;;-0.12;72.50;101565.16;4969411;28;20037;-70
2023/04/06 03:31:05;;;;;;;15.80;10.05;;;;;;;-0.07;72.35;101560.97;4971462;28;20046;-70
2023/04/06 03:33:55;;;;;;;18.63;12.18;;;;;;;-0.06;72.34;101564.44;4972065;28;20050;-70
2023/04/06 03:36:27;;;;;;;17.77;11.88;;;;;;;-0.02;72.50;101566.28;4968421;28;20754;-70
2023/04/06 03:38:56;;;;;;;17.42;11.30;;;;;;;0.02;72.52;101562.91;4969432;28;20106;-70
2023/04/06 03:41:23;;;;;;;18.80;11.95;;;;;;;0.07;72.70;101563.91;4985305;28;20130;-70
2023/04/06 03:44:02;;;;;;;17.13;12.18;;;;;;;0.13;72.54;101561.44;4957415;28;20042;-70
2023/04/06 03:46:29;;;;;;;19.80;12.57;;;;;;;0.18;72.51;101558.97;4987296;28;20047;-70
2023/04/06 03:48:58;;;;;;;22.52;11.52;;;;;;;0.23;72.23;101556.47;4970991;28;20935;-70
2023/04/06 03:51:26;;;;;;;15.40;11.68;;;;;;;0.27;72.29;101550.53;4970707;28;20043;-70
2023/04/06 03:53:53;;;;;;;18.60;11.27;;;;;;;0.32;72.21;101553.22;4985045;28;20066;-70
2023/04/06 03:56:20;;;;;;;16.73;10.32;;;;;;;0.33;72.12;101550.66;4984386;28;20602;-69
2023/04/06 03:58:50;;;;;;;20.17;12.40;;;;;;;0.37;72.24;101546.41;4985970;28;20117;-69
2023/04/06 04:01:20;;;;;;;22.08;12.50;;;;;;;0.42;72.31;101544.81;4969983;28;20043;-69
2023/04/06 04:03:47;;;;;;;18.98;12.48;;;;;;;0.45;72.27;101540.56;4986078;28;20929;-69
2023/04/06 04:06:17;;;;;;;18.55;12.85;;;;;;;0.50;72.17;101540.69;4971801;28;20091;-69
2023/04/06 04:08:45;;;;;;;22.52;12.32;;;;;;;0.56;72.31;101545.13;4984957;28;20055;-71
2023/04/06 04:11:12;;;;;;;24.75;13.48;;;;;;;0.59;72.30;101546.06;4968909;28;20042;-71
2023/04/06 04:13:39;;;;;;;29.45;14.05;;;;;;;0.64;72.34;101551.34;4970811;28;20133;-71
2023/04/06 04:16:07;;;;;;;19.00;12.07;;;;;;;0.68;72.22;101554.91;4969100;28;20577;-71
2023/04/06 04:18:36;;;;;;;17.65;11.80;;;;;;;0.73;72.16;101545.50;4968343;28;20062;-71
2023/04/06 04:21:03;;;;;;;17.30;12.52;;;;;;;0.76;72.40;101550.78;4967897;28;20049;-71
2023/04/06 04:23:30;;;;;;;17.92;12.80;;;;;;;0.84;72.50;101550.91;4968055;28;20050;-71
2023/04/06 04:25:57;;;;;;;18.35;12.65;;;;;;;0.90;72.41;101554.53;4967814;28;20046;-72
2023/04/06 04:28:24;;;;;;;24.90;13.65;;;;;;;0.95;72.15;101545.97;4953047;28;20132;-72
2023/04/06 04:30:54;;;;;;;17.42;12.13;;;;;;;1.01;71.99;101548.69;4969149;28;20156;-71
2023/04/06 04:33:22;;;;;;;21.58;13.25;;;;;;;1.06;72.29;101555.72;4975512;28;20042;-71
2023/04/06 04:35:53;;;;;;;18.23;12.07;;;;;;;1.12;72.17;101544.56;4976255;28;20054;-71
2023/04/06 04:38:23;;;;;;;19.75;12.82;;;;;;;1.19;72.12;101546.44;4983561;28;20098;-71
2023/04/06 04:40:53;;;;;;;19.73;12.82;;;;;;;1.23;72.08;101544.78;4981702;28;20053;-71
2023/04/06 04:43:21;;;;;;;19.20;12.60;;;;;;;1.29;72.12;101544.03;4969262;28;20229;-71
2023/04/06 04:45:48;;;;;;;21.23;12.82;;;;;;;1.33;71.85;101538.03;4969585;28;20570;-71
2023/04/06 04:48:34;;;;;;;18.30;12.07;;;;;;;1.40;71.42;101545.09;4974034;28;20035;-71
2023/04/06 04:51:05;;;;;;;19.83;12.60;;;;;;;1.44;71.26;101544.31;4968780;28;20738;-71
2023/04/06 04:53:55;;;;;;;21.75;13.18;;;;;;;1.49;70.83;101544.41;4974008;28;20595;-70
2023/04/06 04:56:27;;;;;;;23.00;12.60;;;;;;;1.50;70.69;101541.81;4972494;28;20601;-72
2023/04/06 04:59:00;;;;;;;19.10;12.88;;;;;;;1.52;70.76;101545.34;4967816;28;21075;-72
2023/04/06 05:01:30;;;;;;;24.80;13.10;;;;;;;1.53;70.88;101546.19;4981894;28;20043;-72
2023/04/06 05:04:10;;;;;;;19.67;13.32;;;;;;;1.54;70.80;101551.44;4969807;28;20094;-72
2023/04/06 05:06:37;;;;;;;18.67;12.25;;;;;;;1.58;70.82;101547.19;4967924;28;20047;-73
2023/04/06 05:09:04;;;;;;;17.45;12.60;;;;;;;1.60;70.71;101553.28;4967198;28;20986;-72
2023/04/06 05:11:32;;;;;;;18.25;12.27;;;;;;;1.63;70.68;101552.47;4959466;28;20047;-75
2023/04/06 05:14:00;;;;;;;18.08;13.23;;;;;;;1.66;70.52;101547.31;4966910;28;20902;-72
2023/04/06 05:16:28;;;;;;;22.02;13.57;;;;;;;1.69;70.70;101540.44;4957982;28;20040;-72
2023/04/06 05:18:56;;;;;;;17.65;12.70;;;;;;;1.85;71.02;101543.28;4978010;28;20122;-72
2023/04/06 05:21:27;;;;;;;19.45;12.60;;;;;;;2.33;70.23;101533.66;4967428;28;20057;-72
2023/04/06 05:23:59;;;;;;;26.35;12.95;;;;;;;2.75;68.97;101539.44;4991561;28;20045;-72
2023/04/06 05:26:27;;;;;;;18.48;12.65;;;;;;;2.81;68.31;101542.13;4967628;28;20169;-72
2023/04/06 05:28:59;;;;;;;24.33;13.05;;;;;;;2.73;68.28;101539.41;4968614;28;20127;-72
2023/04/06 05:31:30;;;;;;;20.50;12.23;;;;;;;2.70;68.50;101538.50;4966982;28;20046;-72
2023/04/06 05:33:58;;;;;;;20.27;12.23;;;;;;;2.71;68.47;101551.53;4973549;28;20046;-72
2023/04/06 05:36:32;;;;;;;18.77;13.02;;;;;;;2.74;68.70;101542.91;4971184;28;20478;-71
2023/04/06 05:39:08;;;;;;;26.67;12.80;;;;;;;2.82;68.72;101540.41;4975328;28;20054;-69
2023/04/06 05:41:43;;;;;;;22.65;12.70;;;;;;;2.89;68.56;101535.28;4970955;28;20050;-64
2023/04/06 05:44:12;;;;;;;26.23;13.27;;;;;;;3.00;68.35;101529.34;4974290;28;20034;-69
2023/04/06 05:46:42;;;;;;;29.75;13.32;;;;;;;3.08;68.20;101530.31;4959905;28;20050;-69
2023/04/06 05:49:13;;;;;;;28.88;12.90;;;;;;;3.16;67.91;101528.66;4972361;28;20049;-69
2023/04/06 05:51:43;;;;;;;27.35;12.77;;;;;;;3.26;67.76;101527.03;4976811;28;20042;-63
2023/04/06 05:54:10;;;;;;;23.33;13.52;;;;;;;3.35;67.42;101523.66;4975437;28;20038;-67
2023/04/06 05:56:37;;;;;;;19.77;13.05;;;;;;;3.45;67.17;101522.91;4974254;28;21027;-68
2023/04/06 05:59:08;;;;;;;30.25;13.52;;;;;;;3.53;66.99;101521.25;4970765;28;20047;-68
2023/04/06 06:01:36;;;;;;;32.85;14.80;;;;;;;3.60;66.90;101526.50;4968462;28;20047;-68
2023/04/06 06:04:04;;;;;;;28.90;13.38;;;;;;;3.69;66.60;101523.97;4966374;28;20073;-69
2023/04/06 06:06:35;;;;;;;20.75;13.57;;;;;;;3.77;66.42;101524.06;4978766;28;20555;-69
2023/04/06 06:09:18;;;;;;;19.60;12.63;;;;;;;3.85;66.24;101522.38;4976941;28;20043;-68
2023/04/06 06:11:55;;;;;;;21.77;12.98;;;;;;;4.02;65.88;101526.00;4978319;28;20242;-68
2023/04/06 06:14:28;;;;;;;22.35;13.68;;;;;;;4.19;65.67;101518.28;4977691;28;20047;-69
2023/04/06 06:16:55;;;;;;;24.33;13.32;;;;;;;4.37;65.59;101526.25;4977300;28;20042;-69
2023/04/06 06:19:22;;;;;;;26.90;14.82;;;;;;;4.57;65.49;101514.19;4970517;28;20078;-69
2023/04/06 06:21:53;;;;;;;23.75;12.65;;;;;;;4.80;65.04;101513.44;4973368;28;20062;-67
2023/04/06 06:24:21;;;;;;;23.08;12.77;;;;;;;5.04;64.90;101510.03;4972288;28;20486;-68
2023/04/06 06:26:48;;;;;;;33.25;14.38;;;;;;;5.22;64.32;101510.94;4973854;28;20515;-59
2023/04/06 06:29:20;;;;;;;31.27;15.55;;;;;;;5.39;64.05;101504.00;4969483;28;20042;-68
2023/04/06 06:31:49;;;;;;;24.88;12.77;;;;;;;5.60;63.60;101505.78;4964603;28;20049;-68
2023/04/06 06:34:17;;;;;;;30.20;14.18;;;;;;;5.81;63.27;101503.16;4957093;28;20051;-69
2023/04/06 06:36:44;;;;;;;23.17;13.27;;;;;;;5.98;62.15;101505.78;4989940;28;20054;-68
2023/04/06 06:39:15;;;;;;;33.10;12.88;;;;;;;6.14;61.72;101512.81;4975843;28;20840;-69
2023/04/06 06:41:43;;;;;;;25.05;12.50;;;;;;;6.31;61.10;101515.38;4977134;28;20089;-69
2023/04/06 06:44:11;;;;;;;23.90;12.18;;;;;;;6.41;61.05;101515.38;5000469;28;20038;-69
2023/04/06 06:46:40;;;;;;;22.60;11.77;;;;;;;6.52;60.18;101510.97;4989025;28;20743;-69
2023/04/06 06:49:07;;;;;;;19.08;12.13;;;;;;;6.60;59.13;101510.97;4985818;28;20470;-69
2023/04/06 06:51:35;;;;;;;28.70;12.70;;;;;;;6.68;58.85;101506.56;4988656;28;20053;-69
2023/04/06 06:54:03;;;;;;;21.45;12.40;;;;;;;6.72;58.51;101505.69;4973915;28;20034;-69
2023/04/06 06:56:31;;;;;;;25.60;13.02;;;;;;;6.79;58.42;101503.91;4999312;28;20070;-69
2023/04/06 06:58:59;;;;;;;27.38;12.68;;;;;;;6.82;58.45;101499.53;4973702;28;20055;-70
2023/04/06 07:01:26;;;;;;;24.35;12.00;;;;;;;6.86;57.92;101502.16;4968051;28;20652;-69
2023/04/06 07:03:55;;;;;;;23.67;12.75;;;;;;;6.84;58.04;101495.16;4987473;28;20109;-70
2023/04/06 07:06:23;;;;;;;40.13;13.32;;;;;;;6.87;57.65;101496.88;4995695;28;20069;-69
2023/04/06 07:08:51;;;;;;;29.15;12.40;;;;;;;6.90;57.69;101493.38;4979223;28;20452;-69
2023/04/06 07:11:18;;;;;;;21.30;12.85;;;;;;;6.94;58.21;101490.72;4987493;28;20046;-69
2023/04/06 07:13:46;;;;;;;22.38;12.68;;;;;;;7.03;57.74;101496.78;5003892;28;20038;-69
2023/04/06 07:16:13;;;;;;;18.08;12.20;;;;;;;7.11;57.45;101495.03;4996003;28;20046;-69
2023/04/06 07:18:41;;;;;;;28.00;14.13;;;;;;;7.22;57.56;101495.84;4998128;28;20066;-69
2023/04/06 07:21:08;;;;;;;30.60;15.57;;;;;;;7.37;58.10;101494.00;4982912;28;20057;-70
2023/04/06 07:23:36;;;;;;;28.92;14.70;;;;;;;7.52;57.39;101488.66;4972946;28;20499;-69
2023/04/06 07:26:04;;;;;;;29.67;15.60;;;;;;;7.70;57.46;101492.88;4980813;28;20038;-70
2023/04/06 07:28:31;;;;;;;23.23;13.82;;;;;;;7.88;57.10;101499.72;4981610;28;20054;-70
2023/04/06 07:31:01;;;;;;;24.77;12.77;;;;;;;8.08;56.38;101490.81;4963395;28;20468;-71
2023/04/06 07:33:29;;;;;;;22.48;12.93;;;;;;;8.21;55.77;101492.44;4987729;28;20506;-70
2023/04/06 07:35:58;;;;;;;38.95;13.80;;;;;;;8.38;55.35;101500.16;4960374;28;20086;-70
2023/04/06 07:38:26;;;;;;;24.52;13.20;;;;;;;8.49;54.68;101486.06;5000654;28;20043;-69
2023/04/06 07:40:54;;;;;;;27.77;12.68;;;;;;;8.59;54.18;101486.81;4998612;28;20129;-69
2023/04/06 07:43:22;;;;;;;19.98;12.25;;;;;;;8.68;54.21;101498.09;4974235;28;20733;-69
2023/04/06 07:45:50;;;;;;;34.42;13.60;;;;;;;8.70;53.79;101482.28;4975420;28;20073;-69
2023/04/06 07:48:18;;;;;;;17.17;11.30;;;;;;;8.75;53.31;101488.34;4967908;28;20137;-69
2023/04/06 07:50:45;;;;;;;23.85;12.27;;;;;;;8.80;53.86;101476.03;4999499;28;20489;-69
2023/04/06 07:53:14;;;;;;;25.48;13.55;;;;;;;8.87;53.76;101476.81;4976297;28;20782;-69
2023/04/06 07:55:44;;;;;;;22.00;13.90;;;;;;;8.92;53.43;101477.63;4975196;28;20110;-69
2023/04/06 07:58:11;;;;;;;25.15;12.32;;;;;;;8.97;53.08;101469.66;5001285;28;20570;-69
2023/04/06 08:00:38;;;;;;;19.45;12.55;;;;;;;9.00;53.07;101475.75;4995727;28;20791;-69
2023/04/06 08:03:06;;;;;;;23.42;12.48;;;;;;;9.01;53.06;101474.88;4980820;28;20594;-69
2023/04/06 08:05:34;;;;;;;20.40;11.82;;;;;;;9.00;52.95;101473.13;4996919;28;20039;-69
2023/04/06 08:08:01;;;;;;;28.35;11.80;;;;;;;9.01;52.84;101466.97;4997320;28;20049;-69
2023/04/06 08:10:28;;;;;;;30.20;11.77;;;;;;;8.98;53.31;101469.66;4990439;28;20239;-69
2023/04/06 08:12:55;;;;;;;20.73;11.70;;;;;;;8.98;53.61;101469.66;4982828;28;20042;-70
2023/04/06 08:15:22;;;;;;;24.45;12.52;;;;;;;9.03;53.59;101466.97;4991638;28;20050;-69
2023/04/06 08:17:49;;;;;;;25.73;12.77;;;;;;;9.04;53.88;101473.09;5004238;28;20519;-69
2023/04/06 08:20:16;;;;;;;19.23;11.00;;;;;;;9.09;53.88;101473.91;4977837;28;20039;-69
2023/04/06 08:22:43;;;;;;;22.45;12.20;;;;;;;9.13;53.46;101478.22;4979953;28;20046;-69
2023/04/06 08:25:10;;;;;;;21.13;11.48;;;;;;;9.18;53.35;101471.16;5001818;28;20069;-69
2023/04/06 08:27:37;;;;;;;25.23;13.00;;;;;;;9.23;53.19;101474.56;4988977;28;20046;-69
2023/04/06 08:30:05;;;;;;;27.52;12.52;;;;;;;9.30;53.40;101476.22;4976136;28;20038;-70
2023/04/06 08:32:32;;;;;;;26.05;12.60;;;;;;;9.40;53.47;101476.09;4972774;28;20199;-69
2023/04/06 08:34:59;;;;;;;22.75;12.30;;;;;;;9.54;53.16;101478.50;4983282;28;20548;-69
2023/04/06 08:37:27;;;;;;;28.98;12.75;;;;;;;9.66;53.29;101475.69;4991529;28;20055;-69
2023/04/06 08:39:54;;;;;;;21.67;12.00;;;;;;;9.83;53.34;101485.91;5003287;28;20925;-69
2023/04/06 08:42:26;;;;;;;22.35;11.95;;;;;;;9.98;52.93;101474.25;4978536;28;20034;-70
2023/04/06 08:44:54;;;;;;;20.83;12.32;;;;;;;10.12;53.40;101481.94;4995128;28;20043;-69
2023/04/06 08:47:22;;;;;;;23.52;11.48;;;;;;;10.27;53.23;101464.97;4993924;28;20031;-69
2023/04/06 08:49:53;;;;;;;22.40;11.80;;;;;;;10.35;52.99;101465.69;4973549;28;20145;-69
2023/04/06 08:52:20;;;;;;;19.58;11.57;;;;;;;10.46;52.32;101469.91;4982124;28;20106;-69
2023/04/06 08:54:47;;;;;;;20.75;11.70;;;;;;;10.56;51.53;101463.53;4998771;28;20042;-69
2023/04/06 08:57:18;;;;;;;21.83;11.82;;;;;;;10.66;52.11;101465.09;4992303;28;20518;-69
2023/04/06 08:59:46;;;;;;;17.95;11.13;;;;;;;10.80;51.35;101467.44;5002778;28;20141;-69
2023/04/06 09:02:18;;;;;;;26.85;11.57;;;;;;;10.92;51.45;101466.28;4992482;28;21046;-69
2023/04/06 09:04:52;;;;;;;18.20;11.68;;;;;;;10.99;51.20;101467.03;5002813;28;20503;-70
2023/04/06 09:07:23;;;;;;;20.73;11.18;;;;;;;11.06;51.27;101467.78;4991249;28;20989;-69
2023/04/06 09:09:51;;;;;;;20.58;11.50;;;;;;;11.10;50.44;101470.31;4991106;28;20038;-70
2023/04/06 09:12:32;;;;;;;22.48;12.18;;;;;;;11.16;49.92;101461.38;5000056;28;20130;-69
2023/04/06 09:15:02;;;;;;;17.75;11.23;;;;;;;11.17;49.92;101461.34;4982401;28;20034;-69
2023/04/06 09:17:33;;;;;;;21.45;11.80;;;;;;;11.28;50.71;101460.22;4990333;28;20049;-69
2023/04/06 09:20:02;;;;;;;24.13;10.95;;;;;;;11.44;49.93;101461.63;4984086;28;20535;-70
2023/04/06 09:22:42;;;;;;;24.55;11.07;;;;;;;11.67;49.85;101460.16;4978532;28;20053;-69
2023/04/06 09:25:17;;;;;;;17.42;11.63;;;;;;;11.89;49.81;101457.84;4992526;28;20046;-69
2023/04/06 09:27:47;;;;;;;19.63;11.38;;;;;;;12.11;49.46;101462.59;5002435;28;20038;-70
2023/04/06 09:30:16;;;;;;;19.83;12.52;;;;;;;12.26;48.18;101464.81;4975864;28;20039;-70
2023/04/06 09:32:53;;;;;;;22.52;11.98;;;;;;;12.35;47.85;101470.75;4995783;28;20066;-70
2023/04/06 09:35:23;;;;;;;19.90;11.18;;;;;;;12.40;47.94;101461.78;4991160;28;20042;-70
2023/04/06 09:37:52;;;;;;;20.23;11.48;;;;;;;12.52;47.32;101470.28;4973573;28;20061;-70
2023/04/06 09:40:22;;;;;;;17.42;11.40;;;;;;;12.62;47.61;101465.59;4998460;28;20046;-70
2023/04/06 09:42:59;;;;;;;22.35;12.23;;;;;;;12.72;47.33;101452.06;4992234;28;20043;-70
2023/04/06 09:45:30;;;;;;;22.65;11.73;;;;;;;12.84;47.18;101465.84;4994091;28;20058;-70
2023/04/06 09:47:58;;;;;;;20.30;11.27;;;;;;;12.86;47.07;101464.03;4984201;28;20578;-70
2023/04/06 09:50:29;;;;;;;19.67;11.35;;;;;;;12.90;47.33;101463.00;4975952;28;20037;-70
2023/04/06 09:53:02;;;;;;;19.20;11.40;;;;;;;12.94;46.91;101461.13;4976663;28;20050;-70
2023/04/06 09:55:42;;;;;;;22.02;11.70;;;;;;;12.95;46.81;101458.47;4980243;28;20039;-70
2023/04/06 09:58:19;;;;;;;19.23;12.00;;;;;;;12.99;46.48;101461.88;4983281;28;20046;-70
2023/04/06 10:01:05;;;;;;;22.25;11.52;;;;;;;13.03;46.58;101463.50;4976763;28;20130;-70
2023/04/06 10:04:05;;;;;;;18.85;11.70;;;;;;;13.09;46.12;101454.50;5002813;28;20590;-70
2023/04/06 10:06:35;;;;;;;18.50;10.77;;;;;;;13.10;46.57;101453.59;4974977;28;20082;-70
2023/04/06 10:09:07;;;;;;;20.75;10.70;;;;;;;13.14;46.42;101455.25;4993417;28;20126;-70
2023/04/06 10:11:35;;;;;;;40.97;12.52;;;;;;;13.16;46.38;101459.56;4984807;28;20046;-70
2023/04/06 10:14:02;;;;;;;19.08;11.25;;;;;;;13.16;46.31;101456.91;4986796;28;20039;-70
2023/04/06 10:16:30;;;;;;;19.45;10.77;;;;;;;13.21;46.21;101456.78;4987014;28;20039;-70
2023/04/06 10:19:32;;;;;;;24.70;11.05;;;;;;;13.23;46.26;101459.38;4984737;28;20039;-70
2023/04/06 10:22:05;;;;;;;18.60;10.38;;;;;;;13.30;46.30;101460.91;4984918;28;20062;-70
2023/04/06 10:24:32;;;;;;;38.95;10.55;;;;;;;13.32;46.02;101464.38;4989457;28;20042;-70
2023/04/06 10:27:02;;;;;;;24.05;10.43;;;;;;;13.39;45.48;101465.94;4999348;28;20042;-70
2023/04/06 10:29:51;;;;;;;20.70;9.63;;;;;;;13.42;45.21;101470.28;4988612;28;20042;-70
2023/04/06 10:32:18;;;;;;;21.15;10.02;;;;;;;13.45;46.08;101472.84;4996020;28;20050;-70
2023/04/06 10:34:45;;;;;;;14.80;9.15;;;;;;;13.57;45.64;101472.44;5003730;28;20042;-70
2023/04/06 10:37:14;;;;;;;19.75;9.38;;;;;;;13.69;45.94;101468.50;4974640;28;20050;-70
2023/04/06 10:39:57;;;;;;;16.70;9.85;;;;;;;13.88;45.25;101465.22;5001601;28;20042;-70
2023/04/06 10:42:25;;;;;;;20.52;9.68;;;;;;;14.03;45.74;101469.13;5005732;28;20044;-70
2023/04/06 10:44:52;;;;;;;18.95;10.73;;;;;;;14.18;45.73;101465.97;5000365;28;20042;-70
2023/04/06 10:47:19;;;;;;;16.15;9.82;;;;;;;14.31;45.13;101465.50;5005484;28;20035;-70
2023/04/06 10:49:46;;;;;;;19.40;10.45;;;;;;;14.41;44.87;101470.44;4992747;28;20049;-70
2023/04/06 10:52:13;;;;;;;23.63;10.70;;;;;;;14.43;44.75;101457.97;4956628;28;20074;-70
2023/04/06 10:54:44;;;;;;;17.02;9.90;;;;;;;14.48;45.13;101463.13;5000175;28;20803;-70
2023/04/06 10:57:12;;;;;;;17.95;10.27;;;;;;;14.57;44.02;101457.47;4977171;28;20030;-70
2023/04/06 10:59:44;;;;;;;20.67;9.80;;;;;;;14.50;43.54;101455.09;4994034;28;20153;-70
2023/04/06 11:02:21;;;;;;;15.73;9.70;;;;;;;14.43;43.90;101454.44;4992620;28;20129;-69
2023/04/06 11:04:59;;;;;;;17.73;10.45;;;;;;;14.40;44.80;101452.78;4982565;28;20066;-69
2023/04/06 11:07:28;;;;;;;14.73;9.60;;;;;;;14.50;44.89;101455.09;4992347;28;20599;-70
2023/04/06 11:09:56;;;;;;;20.08;9.55;;;;;;;14.56;44.88;101453.09;4993631;28;20047;-70
2023/04/06 11:12:42;;;;;;;15.15;10.10;;;;;;;14.57;44.22;101449.50;4998566;28;20039;-70
2023/04/06 11:15:10;;;;;;;21.30;9.77;;;;;;;14.52;44.52;101459.41;4990459;28;20097;-70
2023/04/06 11:17:37;;;;;;;17.02;9.45;;;;;;;14.49;44.74;101456.91;4965353;28;20043;-70
2023/04/06 11:20:10;;;;;;;27.70;9.98;;;;;;;14.46;43.77;101459.66;4973359;28;20030;-70
2023/04/06 11:22:51;;;;;;;15.48;9.60;;;;;;;14.31;44.62;101455.78;4998187;28;20046;-70
2023/04/06 11:25:19;;;;;;;16.27;8.45;;;;;;;14.22;45.14;101456.97;4987944;28;20101;-70
2023/04/06 11:27:47;;;;;;;22.98;8.27;;;;;;;14.21;45.82;101449.06;4997058;28;20046;-69